Time,TemperatureF,DewpointF,PressureIn,WindDirection,WindDirectionDegrees,WindSpeedMPH,WindSpeedGustMPH,Humidity,HourlyPrecipIn,Conditions,Clouds,dailyrainin,SoftwareType,DateUTC
2013-03-15 00:22:00,80.0,33.0,29.94,East,90,5.0,9.0,18,0.00,,,-99.99,,2013-03-15 07:22:00,
2013-03-15 00:32:00,80.0,33.0,29.94,East,90,5.0,9.0,18,0.00,,,-99.99,,2013-03-15 07:32:00,
2013-03-15 01:22:00,79.0,32.0,29.92,ENE,70,10.0,13.0,18,0.00,,,-99.99,,2013-03-15 08:22:00,
2013-03-15 01:32:00,79.0,32.0,29.92,ENE,70,10.0,13.0,18,0.00,,,-99.99,,2013-03-15 08:32:00,
2013-03-15 01:42:00,79.0,33.0,29.91,NE,50,14.0,17.0,19,0.00,,,-99.99,,2013-03-15 08:42:00,
2013-03-15 02:22:00,79.0,33.0,29.91,NE,50,14.0,17.0,19,0.00,,,-99.99,,2013-03-15 09:22:00,
2013-03-15 02:42:00,75.0,34.0,29.89,NE,40,3.0,6.0,22,0.00,,,-99.99,,2013-03-15 09:42:00,
2013-03-15 03:23:00,75.0,34.0,29.89,NE,40,3.0,6.0,22,0.00,,,-99.99,,2013-03-15 10:23:00,
2013-03-15 03:32:00,75.0,34.0,29.89,NE,40,3.0,6.0,22,0.00,,,-99.99,,2013-03-15 10:32:00,
2013-03-15 04:22:00,77.0,34.0,29.88,NE,40,4.0,6.0,21,0.00,,,-99.99,,2013-03-15 11:22:00,
2013-03-15 05:22:00,77.0,32.0,29.87,NE,40,2.0,3.0,19,0.00,,,-99.99,,2013-03-15 12:22:00,
2013-03-15 05:32:00,77.0,32.0,29.87,NE,40,2.0,3.0,19,0.00,,,-99.99,,2013-03-15 12:32:00,
2013-03-15 06:22:00,77.0,32.0,29.86,NE,40,7.0,12.0,19,0.00,,,-99.99,,2013-03-15 13:22:00,
2013-03-15 06:32:00,77.0,32.0,29.86,NE,40,7.0,12.0,19,0.00,,,-99.99,,2013-03-15 13:32:00,
2013-03-15 07:22:00,76.0,32.0,29.86,NE,40,3.0,6.0,20,0.00,,,-99.99,,2013-03-15 14:22:00,
2013-03-15 07:32:00,76.0,32.0,29.86,NE,40,3.0,6.0,20,0.00,,,-99.99,,2013-03-15 14:32:00,
2013-03-15 08:22:00,79.0,33.0,29.87,NE,40,4.0,8.0,19,0.00,,,-99.99,,2013-03-15 15:22:00,
2013-03-15 08:33:00,79.0,33.0,29.87,NE,40,4.0,8.0,19,0.00,,,-99.99,,2013-03-15 15:33:00,
2013-03-15 09:22:00,79.0,33.0,29.89,NE,40,5.0,10.0,19,0.00,,,-99.99,,2013-03-15 16:22:00,
2013-03-15 09:32:00,79.0,33.0,29.89,NE,40,5.0,10.0,19,0.00,,,-99.99,,2013-03-15 16:32:00,
2013-03-15 09:42:00,79.0,33.0,29.89,NE,40,5.0,10.0,19,0.00,,,-99.99,,2013-03-15 16:42:00,
2013-03-15 10:22:00,85.0,30.0,29.89,NE,40,10.0,19.0,14,0.00,,,-99.99,,2013-03-15 17:22:00,
2013-03-15 10:32:00,85.0,30.0,29.89,NE,40,10.0,19.0,14,0.00,,,-99.99,,2013-03-15 17:32:00,
2013-03-15 10:42:00,85.0,30.0,29.89,NE,40,10.0,19.0,14,0.00,,,-99.99,,2013-03-15 17:42:00,
2013-03-15 11:22:00,88.0,31.0,29.89,NW,310,13.0,22.0,13,0.00,,,-99.99,,2013-03-15 18:22:00,
2013-03-15 11:32:00,88.0,31.0,29.89,NW,310,13.0,22.0,13,0.00,,,-99.99,,2013-03-15 18:32:00,
2013-03-15 11:42:00,88.0,31.0,29.89,NW,310,13.0,22.0,13,0.00,,,-99.99,,2013-03-15 18:42:00,
2013-03-15 12:22:00,89.0,34.0,29.88,WNW,290,6.0,10.0,14,0.00,,,-99.99,,2013-03-15 19:22:00,
2013-03-15 12:32:00,89.0,34.0,29.88,WNW,290,6.0,10.0,14,0.00,,,-99.99,,2013-03-15 19:32:00,
2013-03-15 13:22:00,88.0,39.0,29.86,West,260,10.0,13.0,18,0.00,,,-99.99,,2013-03-15 20:22:00,
2013-03-15 13:31:00,88.0,39.0,29.86,West,260,10.0,13.0,18,0.00,,,-99.99,,2013-03-15 20:31:00,
2013-03-15 13:42:00,88.0,39.0,29.86,West,260,10.0,13.0,18,0.00,,,-99.99,,2013-03-15 20:42:00,
2013-03-15 13:43:00,89.0,38.0,29.84,SW,230,7.0,14.0,17,0.00,,,-99.99,,2013-03-15 20:43:00,
2013-03-15 14:22:00,89.0,38.0,29.84,SW,230,7.0,14.0,17,0.00,,,-99.99,,2013-03-15 21:22:00,
2013-03-15 14:32:00,89.0,38.0,29.84,SW,230,7.0,14.0,17,0.00,,,-99.99,,2013-03-15 21:32:00,
2013-03-15 15:22:00,91.0,39.0,29.81,SSE,150,5.0,14.0,16,0.00,,,-99.99,,2013-03-15 22:22:00,
2013-03-15 15:32:00,91.0,39.0,29.81,SSE,150,5.0,14.0,16,0.00,,,-99.99,,2013-03-15 22:32:00,
2013-03-15 15:42:00,91.0,39.0,29.81,SSE,150,5.0,14.0,16,0.00,,,-99.99,,2013-03-15 22:42:00,
2013-03-15 16:22:00,92.0,36.0,29.79,SSE,160,4.0,13.0,14,0.00,,,-99.99,,2013-03-15 23:22:00,
2013-03-15 16:32:00,92.0,36.0,29.79,SSE,160,4.0,13.0,14,0.00,,,-99.99,,2013-03-15 23:32:00,
2013-03-15 16:42:00,92.0,36.0,29.79,SSE,160,4.0,13.0,14,0.00,,,-99.99,,2013-03-15 23:42:00,
2013-03-15 17:22:00,92.0,34.0,29.78,SSE,160,8.0,14.0,13,0.00,,,-99.99,,2013-03-16 00:22:00,
2013-03-15 17:32:00,92.0,34.0,29.78,SSE,160,8.0,14.0,13,0.00,,,-99.99,,2013-03-16 00:32:00,
2013-03-15 17:42:00,92.0,34.0,29.78,SSE,160,8.0,14.0,13,0.00,,,-99.99,,2013-03-16 00:42:00,
2013-03-15 18:21:00,90.0,34.0,29.76,South,170,9.0,14.0,14,0.00,,,-99.99,,2013-03-16 01:21:00,
2013-03-15 18:32:00,90.0,34.0,29.76,South,170,9.0,14.0,14,0.00,,,-99.99,,2013-03-16 01:32:00,
2013-03-15 18:42:00,90.0,34.0,29.76,South,170,9.0,14.0,14,0.00,,,-99.99,,2013-03-16 01:42:00,
2013-03-15 19:22:00,87.0,37.0,29.77,WSW,240,18.0,26.0,17,0.00,,,-99.99,,2013-03-16 02:22:00,
2013-03-15 19:32:00,87.0,37.0,29.77,WSW,240,18.0,26.0,17,0.00,,,-99.99,,2013-03-16 02:32:00,
2013-03-15 19:42:00,87.0,37.0,29.77,WSW,240,18.0,26.0,17,0.00,,,-99.99,,2013-03-16 02:42:00,
2013-03-15 19:43:00,82.0,38.0,29.78,WNW,290,13.0,29.0,21,0.00,,,-99.99,,2013-03-16 02:43:00,
2013-03-15 20:22:00,82.0,38.0,29.78,WNW,290,13.0,29.0,21,0.00,,,-99.99,,2013-03-16 03:22:00,
2013-03-15 20:32:00,82.0,38.0,29.78,WNW,290,13.0,29.0,21,0.00,,,-99.99,,2013-03-16 03:32:00,
2013-03-15 21:22:00,79.0,38.0,29.80,WNW,300,15.0,31.0,23,0.00,,,-99.99,,2013-03-16 04:22:00,
2013-03-15 21:32:00,79.0,38.0,29.80,WNW,300,15.0,31.0,23,0.00,,,-99.99,,2013-03-16 04:32:00,
2013-03-15 21:42:00,79.0,38.0,29.80,WNW,300,15.0,31.0,23,0.00,,,-99.99,,2013-03-16 04:42:00,
2013-03-15 22:21:00,78.0,35.0,29.80,NW,310,21.0,42.0,21,0.00,,,-99.99,,2013-03-16 05:21:00,
2013-03-15 22:32:00,78.0,35.0,29.80,NW,310,21.0,42.0,21,0.00,,,-99.99,,2013-03-16 05:32:00,
2013-03-15 22:42:00,78.0,35.0,29.80,NW,310,21.0,42.0,21,0.00,,,-99.99,,2013-03-16 05:42:00,
2013-03-15 23:22:00,78.0,31.0,29.79,NW,320,33.0,44.0,18,0.00,,,-99.99,,2013-03-16 06:22:00,
2013-03-15 23:32:00,78.0,31.0,29.79,NW,320,33.0,44.0,18,0.00,,,-99.99,,2013-03-16 06:32:00,
2013-03-15 23:42:00,78.0,31.0,29.79,NW,320,33.0,44.0,18,0.00,,,-99.99,,2013-03-16 06:42:00,